Time;durP1;ratioP1;P1;durP2;ratioP2;P2;SDS_P1;SDS_P2;PMS_P1;PMS_P2;Temp;Humidity;BMP_temperature;BMP_pressure;BME280_temperature;BME280_humidity;BME280_pressure;Samples;Min_cycle;Max_cycle;Signal;HPM_P1;HPM_P2
2022/07/15 00:02:25;;;;;;;;;;;;;;;;;;4882045;29;19943;-79
2022/07/15 00:04:53;;;;;;;;;;;;;;;;;;4881245;29;20337;-79
2022/07/15 00:07:20;;;;;;;;;;;;;;;;;;4881442;29;19927;-80
2022/07/15 00:12:33;;;;;;;;;;;;;;;;;;4883781;29;19923;-80
2022/07/15 00:15:00;;;;;;;;;;;;;;;;;;4883193;29;19927;-79
2022/07/15 00:17:28;;;;;;;;;;;;;;;;;;4883703;29;20027;-78
2022/07/15 00:19:55;;;;;;;;;;;;;;;;;;4881734;29;19923;-78
2022/07/15 00:22:22;;;;;;;;;;;;;;;;;;4866391;29;19983;-81
2022/07/15 00:24:50;;;;;;;;;;;;;;;;;;4878716;29;19924;-79
2022/07/15 00:27:17;;;;;;;;;;;;;;;;;;4878344;29;19955;-78
2022/07/15 00:29:44;;;;;;;;;;;;;;;;;;4891756;29;19928;-79
2022/07/15 00:32:12;;;;;;;;;;;;;;;;;;4877104;29;19932;-79
2022/07/15 00:34:39;;;;;;;;;;;;;;;;;;4877117;29;19927;-79
2022/07/15 00:37:06;;;;;;;;;;;;;;;;;;4878801;29;19932;-80
2022/07/15 00:39:34;;;;;;;;;;;;;;;;;;4877865;29;19924;-79
2022/07/15 00:42:01;;;;;;;;;;;;;;;;;;4876978;29;20030;-79
2022/07/15 00:44:28;;;;;;;;;;;;;;;;;;4877590;29;19924;-79
2022/07/15 00:46:55;;;;;;;;;;;;;;;;;;4875734;29;20031;-79
2022/07/15 00:49:22;;;;;;;;;;;;;;;;;;4877916;29;19928;-79
2022/07/15 00:51:50;;;;;;;;;;;;;;;;;;4876874;29;19928;-79
2022/07/15 00:54:18;;;;;;;;;;;;;;;;;;4878473;29;19983;-79
2022/07/15 00:56:46;;;;;;;;;;;;;;;;;;4846309;29;19956;-79
2022/07/15 00:59:13;;;;;;;;;;;;;;;;;;4876723;29;20108;-79
2022/07/15 01:01:41;;;;;;;;;;;;;;;;;;4878435;29;19924;-79
2022/07/15 01:04:08;;;;;;;;;;;;;;;;;;4879479;29;20000;-79
2022/07/15 01:06:35;;;;;;;;;;;;;;;;;;4877058;29;19930;-79
2022/07/15 01:09:02;;;;;;;;;;;;;;;;;;4878845;29;20322;-79
2022/07/15 01:11:30;;;;;;;;;;;;;;;;;;4878045;29;19955;-80
2022/07/15 01:13:59;;;;;;;;;;;;;;;;;;4876732;29;20259;-79
2022/07/15 01:16:26;;;;;;;;;;;;;;;;;;4875958;29;19970;-80
2022/07/15 01:18:54;;;;;;;;;;;;;;;;;;4876986;29;19924;-79
2022/07/15 01:21:25;;;;;;;;;;;;;;;;;;4861277;29;20355;-80
2022/07/15 01:23:54;;;;;;;;;;;;;;;;;;4875838;29;19962;-79
2022/07/15 01:26:30;;;;;;;;;;;;;;;;;;4875751;29;19979;-79
2022/07/15 01:28:58;;;;;;;;;;;;;;;;;;4876982;29;19928;-79
2022/07/15 01:31:26;;;;;;;;;;;;;;;;;;4875795;29;19931;-79
2022/07/15 01:33:54;;;;;;;;;;;;;;;;;;4875771;29;19934;-79
2022/07/15 01:36:21;;;;;;;;;;;;;;;;;;4876909;29;19975;-79
2022/07/15 01:38:57;;;;;;;;;;;;;;;;;;4875851;29;19932;-79
2022/07/15 01:41:45;;;;;;;;;;;;;;;;;;4876598;29;19924;-79
2022/07/15 01:44:15;;;;;;;;;;;;;;;;;;4876747;29;19955;-79
2022/07/15 01:46:44;;;;;;;;;;;;;;;;;;4872990;29;20202;-79
2022/07/15 01:49:26;;;;;;;;;;;;;;;;;;4875478;29;19924;-79
2022/07/15 01:52:14;;;;;;;;;;;;;;;;;;4875259;29;19934;-78
2022/07/15 01:54:44;;;;;;;;;;;;;;;;;;4860098;29;20038;-79
2022/07/15 01:57:11;;;;;;;;;;;;;;;;;;4859600;29;19931;-79
2022/07/15 01:59:51;;;;;;;;;;;;;;;;;;4875131;29;19928;-79
2022/07/15 02:02:27;;;;;;;;;;;;;;;;;;4876097;29;19958;-78
2022/07/15 02:04:55;;;;;;;;;;;;;;;;;;4890467;29;19963;-80
2022/07/15 02:07:23;;;;;;;;;;;;;;;;;;4876222;29;20346;-79
2022/07/15 02:09:50;;;;;;;;;;;;;;;;;;4890794;29;20033;-79
2022/07/15 02:12:17;;;;;;;;;;;;;;;;;;4859672;29;20014;-78
2022/07/15 02:14:50;;;;;;;;;;;;;;;;;;4859125;29;19951;-79
2022/07/15 02:17:18;;;;;;;;;;;;;;;;;;4880535;29;19927;-79
2022/07/15 02:19:45;;;;;;;;;;;;;;;;;;4859330;29;20000;-79
2022/07/15 02:22:12;;;;;;;;;;;;;;;;;;4859875;29;20026;-79
2022/07/15 02:24:39;;;;;;;;;;;;;;;;;;4874763;29;19927;-79
2022/07/15 02:27:07;;;;;;;;;;;;;;;;;;4890204;29;20394;-78
2022/07/15 02:29:35;;;;;;;;;;;;;;;;;;4874822;29;19963;-79
2022/07/15 02:32:02;;;;;;;;;;;;;;;;;;4874864;29;19935;-78
2022/07/15 02:34:30;;;;;;;;;;;;;;;;;;4890280;29;20636;-78
2022/07/15 02:36:58;;;;;;;;;;;;;;;;;;4875189;29;19924;-79
2022/07/15 02:39:25;;;;;;;;;;;;;;;;;;4859708;29;19928;-80
2022/07/15 02:41:56;;;;;;;;;;;;;;;;;;4890237;29;19932;-79
2022/07/15 02:44:23;;;;;;;;;;;;;;;;;;4880262;29;19932;-78
2022/07/15 02:46:51;;;;;;;;;;;;;;;;;;4941411;23;19934;-80
2022/07/15 02:49:23;;;;;;;;;;;;;;;;;;4916719;29;20013;-80
2022/07/15 02:51:51;;;;;;;;;;;;;;;;;;4911635;29;20291;-80
2022/07/15 02:54:21;;;;;;;;;;;;;;;;;;4911423;29;19931;-80
2022/07/15 02:56:49;;;;;;;;;;;;;;;;;;4895529;29;19958;-80
2022/07/15 02:59:16;;;;;;;;;;;;;;;;;;4913106;29;19923;-80
2022/07/15 03:01:44;;;;;;;;;;;;;;;;;;4911946;29;19923;-80
2022/07/15 03:04:13;;;;;;;;;;;;;;;;;;4911958;29;19931;-80
2022/07/15 03:06:40;;;;;;;;;;;;;;;;;;4895716;29;19927;-80
2022/07/15 03:09:08;;;;;;;;;;;;;;;;;;4912715;29;20418;-81
2022/07/15 03:11:35;;;;;;;;;;;;;;;;;;4912522;29;19923;-80
2022/07/15 03:14:04;;;;;;;;;;;;;;;;;;4896536;29;19923;-80
2022/07/15 03:16:31;;;;;;;;;;;;;;;;;;4912625;29;19930;-80
2022/07/15 03:18:58;;;;;;;;;;;;;;;;;;4909656;29;19926;-80
2022/07/15 03:21:26;;;;;;;;;;;;;;;;;;4892594;29;19934;-79
2022/07/15 03:23:54;;;;;;;;;;;;;;;;;;4911530;29;20394;-81
2022/07/15 03:26:21;;;;;;;;;;;;;;;;;;4912088;29;20387;-80
2022/07/15 03:28:49;;;;;;;;;;;;;;;;;;4901155;29;20048;-80
2022/07/15 03:31:17;;;;;;;;;;;;;;;;;;4900407;29;19927;-80
2022/07/15 03:33:45;;;;;;;;;;;;;;;;;;4917979;29;19934;-80
2022/07/15 03:36:21;;;;;;;;;;;;;;;;;;4917310;29;19923;-80
2022/07/15 03:38:51;;;;;;;;;;;;;;;;;;4906033;29;19987;-80
2022/07/15 03:41:18;;;;;;;;;;;;;;;;;;4913502;29;19931;-80
2022/07/15 03:43:46;;;;;;;;;;;;;;;;;;4886844;29;19979;-80
2022/07/15 03:46:16;;;;;;;;;;;;;;;;;;4908430;29;19970;-80
2022/07/15 03:48:49;;;;;;;;;;;;;;;;;;4909851;29;20029;-80
2022/07/15 03:51:16;;;;;;;;;;;;;;;;;;4910330;29;19935;-80
2022/07/15 03:53:44;;;;;;;;;;;;;;;;;;4893678;29;20419;-79
2022/07/15 03:56:11;;;;;;;;;;;;;;;;;;4899198;29;19927;-80
2022/07/15 03:58:38;;;;;;;;;;;;;;;;;;4903789;29;19923;-80
2022/07/15 04:01:05;;;;;;;;;;;;;;;;;;4908150;29;19935;-80
2022/07/15 04:03:33;;;;;;;;;;;;;;;;;;4901863;29;19927;-79
2022/07/15 04:06:00;;;;;;;;;;;;;;;;;;4915897;29;19926;-80
2022/07/15 04:08:28;;;;;;;;;;;;;;;;;;4921841;29;19958;-80
2022/07/15 04:10:55;;;;;;;;;;;;;;;;;;4927082;29;19926;-80
2022/07/15 04:13:23;;;;;;;;;;;;;;;;;;4907274;29;20029;-80
2022/07/15 04:15:50;;;;;;;;;;;;;;;;;;4925820;29;19952;-80
2022/07/15 04:18:18;;;;;;;;;;;;;;;;;;4925479;29;20025;-80
2022/07/15 04:20:46;;;;;;;;;;;;;;;;;;4924677;29;20489;-80
2022/07/15 04:23:13;;;;;;;;;;;;;;;;;;4925590;29;19926;-80
2022/07/15 04:25:41;;;;;;;;;;;;;;;;;;4932771;29;20446;-80
2022/07/15 04:28:09;;;;;;;;;;;;;;;;;;4917666;29;20309;-80
2022/07/15 04:30:36;;;;;;;;;;;;;;;;;;4934032;29;20330;-79
2022/07/15 04:33:04;;;;;;;;;;;;;;;;;;4930648;29;19922;-80
2022/07/15 04:35:32;;;;;;;;;;;;;;;;;;4913785;29;19982;-80
2022/07/15 04:38:04;;;;;;;;;;;;;;;;;;4911743;29;19934;-80
2022/07/15 04:40:32;;;;;;;;;;;;;;;;;;4897359;29;20311;-80
2022/07/15 04:43:03;;;;;;;;;;;;;;;;;;4914432;29;20254;-80
2022/07/15 04:45:30;;;;;;;;;;;;;;;;;;4898182;29;20399;-80
2022/07/15 04:47:57;;;;;;;;;;;;;;;;;;4913595;29;19990;-80
2022/07/15 04:50:51;;;;;;;;;;;;;;;;;;4895526;29;19923;-81
2022/07/15 04:53:22;;;;;;;;;;;;;;;;;;4911163;29;20049;-80
2022/07/15 04:55:49;;;;;;;;;;;;;;;;;;4912242;29;19931;-79
2022/07/15 04:58:16;;;;;;;;;;;;;;;;;;4913600;29;19923;-80
2022/07/15 05:00:44;;;;;;;;;;;;;;;;;;4915229;29;19933;-80
2022/07/15 05:03:13;;;;;;;;;;;;;;;;;;4897023;29;19927;-80
2022/07/15 05:05:41;;;;;;;;;;;;;;;;;;4913956;29;20576;-79
2022/07/15 05:08:10;;;;;;;;;;;;;;;;;;4913495;29;20272;-79
2022/07/15 05:10:43;;;;;;;;;;;;;;;;;;4914561;29;20022;-79
2022/07/15 05:13:10;;;;;;;;;;;;;;;;;;4913726;29;19927;-81
2022/07/15 05:15:38;;;;;;;;;;;;;;;;;;4897145;29;19927;-80
2022/07/15 05:18:13;;;;;;;;;;;;;;;;;;4906617;29;19927;-79
2022/07/15 05:20:41;;;;;;;;;;;;;;;;;;4914600;29;19927;-79
2022/07/15 05:23:08;;;;;;;;;;;;;;;;;;4913500;29;19927;-80
2022/07/15 05:25:40;;;;;;;;;;;;;;;;;;4913014;29;19986;-81
2022/07/15 05:28:08;;;;;;;;;;;;;;;;;;4912926;29;19930;-80
2022/07/15 05:30:37;;;;;;;;;;;;;;;;;;4886620;29;19947;-80
2022/07/15 05:33:06;;;;;;;;;;;;;;;;;;4903382;29;19975;-80
2022/07/15 05:35:33;;;;;;;;;;;;;;;;;;4912788;29;19934;-80
2022/07/15 05:38:02;;;;;;;;;;;;;;;;;;4894991;29;19923;-80
2022/07/15 05:40:33;;;;;;;;;;;;;;;;;;4895645;29;19933;-80
2022/07/15 05:43:01;;;;;;;;;;;;;;;;;;4913539;29;20013;-82
2022/07/15 05:45:34;;;;;;;;;;;;;;;;;;4910641;29;19923;-80
2022/07/15 05:48:06;;;;;;;;;;;;;;;;;;4896239;29;20370;-80
2022/07/15 05:50:40;;;;;;;;;;;;;;;;;;4913536;29;19927;-80
2022/07/15 05:53:09;;;;;;;;;;;;;;;;;;4911927;29;19934;-80
2022/07/15 05:55:36;;;;;;;;;;;;;;;;;;4912200;29;20383;-79
2022/07/15 05:58:03;;;;;;;;;;;;;;;;;;4912746;29;19923;-80
2022/07/15 06:00:31;;;;;;;;;;;;;;;;;;4913450;29;19927;-80
2022/07/15 06:02:58;;;;;;;;;;;;;;;;;;4909047;29;19930;-80
2022/07/15 06:05:27;;;;;;;;;;;;;;;;;;4895387;29;20791;-80
2022/07/15 06:07:57;;;;;;;;;;;;;;;;;;4894167;29;19931;-80
2022/07/15 06:13:02;;;;;;;;;;;;;;;;;;4886954;29;19943;-78
2022/07/15 06:15:30;;;;;;;;;;;;;;;;;;4855407;29;20026;-78
2022/07/15 06:17:58;;;;;;;;;;;;;;;;;;4892347;29;19967;-78
2022/07/15 06:20:29;;;;;;;;;;;;;;;;;;4887107;29;19927;-78
2022/07/15 06:22:59;;;;;;;;;;;;;;;;;;4890575;29;19958;-78
2022/07/15 06:25:27;;;;;;;;;;;;;;;;;;4873822;29;19928;-79
2022/07/15 06:27:54;;;;;;;;;;;;;;;;;;4893575;29;19983;-78
2022/07/15 06:30:21;;;;;;;;;;;;;;;;;;4869307;29;19932;-78
2022/07/15 06:32:49;;;;;;;;;;;;;;;;;;4903209;29;19927;-78
2022/07/15 06:35:16;;;;;;;;;;;;;;;;;;4893033;29;19924;-78
2022/07/15 06:37:43;;;;;;;;;;;;;;;;;;4854987;29;19942;-78
2022/07/15 06:40:11;;;;;;;;;;;;;;;;;;4877269;29;19934;-78
2022/07/15 06:42:38;;;;;;;;;;;;;;;;;;4884928;29;19928;-78
2022/07/15 06:45:08;;;;;;;;;;;;;;;;;;4870382;29;19979;-78
2022/07/15 06:47:35;;;;;;;;;;;;;;;;;;4884196;29;19928;-78
2022/07/15 06:50:02;;;;;;;;;;;;;;;;;;4873203;29;19959;-78
2022/07/15 06:52:29;;;;;;;;;;;;;;;;;;4894776;29;19970;-78
2022/07/15 06:54:57;;;;;;;;;;;;;;;;;;4893057;29;20412;-78
2022/07/15 06:57:24;;;;;;;;;;;;;;;;;;4893315;29;19928;-78
2022/07/15 06:59:53;;;;;;;;;;;;;;;;;;4894075;29;19928;-78
2022/07/15 07:02:22;;;;;;;;;;;;;;;;;;4860520;29;19938;-77
2022/07/15 07:04:50;;;;;;;;;;;;;;;;;;4877898;29;19984;-78
2022/07/15 07:07:18;;;;;;;;;;;;;;;;;;4848195;29;19959;-78
2022/07/15 07:09:45;;;;;;;;;;;;;;;;;;4880962;29;19927;-79
2022/07/15 07:12:13;;;;;;;;;;;;;;;;;;4865968;29;19984;-78
2022/07/15 07:14:40;;;;;;;;;;;;;;;;;;4888634;29;19927;-78
2022/07/15 07:17:08;;;;;;;;;;;;;;;;;;4874922;29;20047;-79
2022/07/15 07:19:36;;;;;;;;;;;;;;;;;;4885952;29;19959;-78
2022/07/15 07:22:04;;;;;;;;;;;;;;;;;;4891603;29;19991;-78
2022/07/15 07:24:31;;;;;;;;;;;;;;;;;;4881432;29;19928;-79
2022/07/15 07:26:58;;;;;;;;;;;;;;;;;;4881923;29;19934;-79
2022/07/15 07:29:32;;;;;;;;;;;;;;;;;;4898380;29;19924;-78
2022/07/15 07:31:59;;;;;;;;;;;;;;;;;;4882181;29;19933;-79
2022/07/15 07:34:27;;;;;;;;;;;;;;;;;;4897938;29;19924;-80
2022/07/15 07:36:54;;;;;;;;;;;;;;;;;;4879878;29;19963;-79
2022/07/15 07:39:21;;;;;;;;;;;;;;;;;;4879660;29;19935;-78
2022/07/15 07:41:53;;;;;;;;;;;;;;;;;;4898600;29;19962;-79
2022/07/15 07:44:20;;;;;;;;;;;;;;;;;;4888938;29;19924;-79
2022/07/15 07:46:47;;;;;;;;;;;;;;;;;;4878190;29;20010;-78
2022/07/15 07:49:15;;;;;;;;;;;;;;;;;;4903838;29;19932;-80
2022/07/15 07:52:02;;;;;;;;;;;;;;;;;;4865850;29;20428;-79
2022/07/15 07:54:29;;;;;;;;;;;;;;;;;;4877336;29;19977;-79
2022/07/15 07:56:57;;;;;;;;;;;;;;;;;;4893551;29;19957;-80
2022/07/15 07:59:24;;;;;;;;;;;;;;;;;;4893722;29;19997;-79
2022/07/15 08:01:51;;;;;;;;;;;;;;;;;;4892782;29;19928;-80
2022/07/15 08:04:19;;;;;;;;;;;;;;;;;;4891066;29;19933;-80
2022/07/15 08:06:46;;;;;;;;;;;;;;;;;;4887733;29;19924;-80
2022/07/15 08:09:14;;;;;;;;;;;;;;;;;;4888673;29;19928;-79
2022/07/15 08:11:42;;;;;;;;;;;;;;;;;;4902000;29;19923;-79
2022/07/15 08:14:09;;;;;;;;;;;;;;;;;;4874640;29;19934;-80
2022/07/15 08:16:41;;;;;;;;;;;;;;;;;;4890305;29;19931;-80
2022/07/15 08:19:13;;;;;;;;;;;;;;;;;;4892349;29;19927;-79
2022/07/15 08:21:40;;;;;;;;;;;;;;;;;;4862823;29;19928;-79
2022/07/15 08:24:08;;;;;;;;;;;;;;;;;;4894305;29;19969;-79
2022/07/15 08:26:35;;;;;;;;;;;;;;;;;;4877235;29;19934;-79
2022/07/15 08:29:03;;;;;;;;;;;;;;;;;;4862590;29;19935;-79
2022/07/15 08:31:41;;;;;;;;;;;;;;;;;;4859675;29;19928;-78
2022/07/15 08:34:36;;;;;;;;;;;;;;;;;;4877446;29;19970;-79
2022/07/15 08:37:04;;;;;;;;;;;;;;;;;;4872494;29;19966;-79
2022/07/15 08:39:31;;;;;;;;;;;;;;;;;;4884575;29;19923;-78
2022/07/15 08:42:24;;;;;;;;;;;;;;;;;;4883365;29;19927;-78
2022/07/15 08:44:54;;;;;;;;;;;;;;;;;;4888872;29;19928;-79
2022/07/15 08:47:24;;;;;;;;;;;;;;;;;;4894834;23;20378;-88
2022/07/15 08:50:29;;;;;;;;;;;;;;;;;;4894142;29;19931;-87
2022/07/15 08:53:19;;;;;;;;;;;;;;;;;;4876736;29;19924;-87
2022/07/15 08:55:59;;;;;;;;;;;;;;;;;;4889170;29;19927;-86
2022/07/15 08:58:28;;;;;;;;;;;;;;;;;;4892347;29;19923;-86
2022/07/15 09:01:25;;;;;;;;;;;;;;;;;;4911862;29;20022;-87
2022/07/15 09:03:52;;;;;;;;;;;;;;;;;;4881909;29;19934;-87
2022/07/15 09:06:30;;;;;;;;;;;;;;;;;;4881225;29;20333;-87
2022/07/15 09:09:27;;;;;;;;;;;;;;;;;;4882318;29;19927;-88
2022/07/15 09:11:58;;;;;;;;;;;;;;;;;;4876498;29;19923;-87
2022/07/15 09:14:47;;;;;;;;;;;;;;;;;;4868650;29;20461;-87
2022/07/15 09:17:23;;;;;;;;;;;;;;;;;;4880378;29;19923;-86
2022/07/15 09:19:56;;;;;;;;;;;;;;;;;;4866439;29;19928;-87
2022/07/15 09:22:25;;;;;;;;;;;;;;;;;;4879767;29;20086;-87
2022/07/15 09:25:03;;;;;;;;;;;;;;;;;;4895810;29;20376;-86
2022/07/15 09:27:31;;;;;;;;;;;;;;;;;;4879932;29;19923;-86
2022/07/15 09:38:54;;;;;;;;;;;;;;;;;;4860784;29;19993;-86
2022/07/15 09:41:22;;;;;;;;;;;;;;;;;;4874264;29;19966;-87
2022/07/15 09:43:54;;;;;;;;;;;;;;;;;;4831494;29;19924;-86
2022/07/15 09:46:21;;;;;;;;;;;;;;;;;;4875298;29;20059;-87
2022/07/15 09:49:12;;;;;;;;;;;;;;;;;;4861292;29;19928;-87
2022/07/15 09:52:20;;;;;;;;;;;;;;;;;;4848586;29;19919;-87
2022/07/15 09:55:10;;;;;;;;;;;;;;;;;;4834413;29;19931;-87
2022/07/15 09:57:48;;;;;;;;;;;;;;;;;;4826748;29;19928;-87
2022/07/15 10:00:18;;;;;;;;;;;;;;;;;;4833070;29;19934;-87
2022/07/15 10:02:46;;;;;;;;;;;;;;;;;;4829030;29;19928;-87
2022/07/15 10:05:15;;;;;;;;;;;;;;;;;;4855719;29;19927;-87
2022/07/15 10:08:37;;;;;;;;;;;;;;;;;;4849552;29;20451;-87
2022/07/15 10:11:28;;;;;;;;;;;;;;;;;;4878965;29;20410;-86
2022/07/15 10:14:01;;;;;;;;;;;;;;;;;;4875781;29;19923;-87
2022/07/15 10:17:06;;;;;;;;;;;;;;;;;;4884597;29;19930;-87
2022/07/15 10:19:41;;;;;;;;;;;;;;;;;;4891597;29;19930;-86
2022/07/15 10:22:15;;;;;;;;;;;;;;;;;;4891536;29;19970;-89
2022/07/15 10:24:51;;;;;;;;;;;;;;;;;;4886274;29;19931;-87
2022/07/15 10:27:40;;;;;;;;;;;;;;;;;;4894730;29;19927;-87
2022/07/15 10:30:14;;;;;;;;;;;;;;;;;;4877955;29;20353;-87
2022/07/15 10:32:48;;;;;;;;;;;;;;;;;;4875196;29;20010;-87
2022/07/15 10:35:32;;;;;;;;;;;;;;;;;;4866502;29;20014;-87
2022/07/15 10:38:06;;;;;;;;;;;;;;;;;;4866480;29;19923;-86
2022/07/15 10:40:54;;;;;;;;;;;;;;;;;;4873056;29;19934;-87
2022/07/15 10:43:41;;;;;;;;;;;;;;;;;;4879378;29;19955;-85
2022/07/15 10:46:09;;;;;;;;;;;;;;;;;;4893286;29;19982;-86
2022/07/15 10:48:37;;;;;;;;;;;;;;;;;;4908858;29;19932;-85
2022/07/15 10:51:04;;;;;;;;;;;;;;;;;;4878152;29;19923;-86
2022/07/15 10:53:31;;;;;;;;;;;;;;;;;;4895882;29;20021;-84
2022/07/15 10:56:01;;;;;;;;;;;;;;;;;;4896442;29;19923;-86
2022/07/15 10:58:29;;;;;;;;;;;;;;;;;;4891773;29;19991;-85
2022/07/15 11:00:56;;;;;;;;;;;;;;;;;;4908209;29;19971;-85
2022/07/15 11:03:24;;;;;;;;;;;;;;;;;;4912437;29;19978;-84
2022/07/15 11:05:51;;;;;;;;;;;;;;;;;;4897114;29;19924;-86
2022/07/15 11:08:19;;;;;;;;;;;;;;;;;;4893921;29;19979;-85
2022/07/15 11:10:50;;;;;;;;;;;;;;;;;;4890965;29;19923;-86
2022/07/15 11:13:20;;;;;;;;;;;;;;;;;;4880210;29;19923;-85
2022/07/15 11:15:51;;;;;;;;;;;;;;;;;;4897018;29;19930;-86
2022/07/15 11:18:18;;;;;;;;;;;;;;;;;;4889404;29;19935;-84
2022/07/15 11:20:53;;;;;;;;;;;;;;;;;;4903875;29;19928;-85
2022/07/15 11:23:21;;;;;;;;;;;;;;;;;;4896740;29;19927;-85
2022/07/15 11:25:49;;;;;;;;;;;;;;;;;;4910489;29;19966;-85
2022/07/15 11:28:17;;;;;;;;;;;;;;;;;;4881506;29;19924;-86
2022/07/15 11:30:47;;;;;;;;;;;;;;;;;;4878121;29;19924;-83
2022/07/15 11:33:14;;;;;;;;;;;;;;;;;;4897896;29;20022;-83
2022/07/15 11:35:43;;;;;;;;;;;;;;;;;;4898380;29;19935;-82
2022/07/15 11:38:10;;;;;;;;;;;;;;;;;;4894334;29;19930;-85
2022/07/15 11:46:10;;;;;;;;;;;;;;;;;;4891262;29;19927;-84
2022/07/15 11:48:37;;;;;;;;;;;;;;;;;;4894664;29;20311;-85
2022/07/15 11:51:04;;;;;;;;;;;;;;;;;;4893324;29;20002;-85
2022/07/15 11:53:34;;;;;;;;;;;;;;;;;;4895170;29;19928;-82
2022/07/15 11:56:01;;;;;;;;;;;;;;;;;;4891818;29;19934;-84
2022/07/15 11:58:28;;;;;;;;;;;;;;;;;;4874216;29;20016;-83
2022/07/15 12:00:56;;;;;;;;;;;;;;;;;;4891506;29;19950;-84
2022/07/15 12:03:23;;;;;;;;;;;;;;;;;;4890590;29;19931;-84
2022/07/15 12:05:50;;;;;;;;;;;;;;;;;;4897844;29;19927;-84
2022/07/15 12:08:17;;;;;;;;;;;;;;;;;;4892452;29;19931;-88
2022/07/15 12:10:45;;;;;;;;;;;;;;;;;;4896865;29;19954;-83
2022/07/15 12:13:12;;;;;;;;;;;;;;;;;;4894935;29;20376;-83
2022/07/15 12:15:39;;;;;;;;;;;;;;;;;;4895302;29;19947;-83
2022/07/15 12:18:06;;;;;;;;;;;;;;;;;;4896139;29;20369;-83
2022/07/15 12:20:34;;;;;;;;;;;;;;;;;;4897566;29;19965;-84
2022/07/15 12:23:01;;;;;;;;;;;;;;;;;;4896050;29;19931;-84
2022/07/15 12:25:28;;;;;;;;;;;;;;;;;;4896301;29;19927;-84
2022/07/15 12:27:56;;;;;;;;;;;;;;;;;;4880775;29;20249;-84
2022/07/15 12:30:23;;;;;;;;;;;;;;;;;;4895724;29;19927;-84
2022/07/15 12:32:50;;;;;;;;;;;;;;;;;;4917331;23;20408;-79
2022/07/15 12:35:18;;;;;;;;;;;;;;;;;;4891656;29;19970;-79
2022/07/15 12:37:45;;;;;;;;;;;;;;;;;;4895686;29;19923;-79
2022/07/15 12:40:12;;;;;;;;;;;;;;;;;;4898097;29;20020;-79
2022/07/15 12:42:40;;;;;;;;;;;;;;;;;;4897311;29;19982;-80
2022/07/15 12:45:07;;;;;;;;;;;;;;;;;;4899817;29;19966;-80
2022/07/15 12:47:40;;;;;;;;;;;;;;;;;;4898042;29;19927;-79
2022/07/15 12:50:07;;;;;;;;;;;;;;;;;;4898188;29;19927;-79
2022/07/15 12:52:34;;;;;;;;;;;;;;;;;;4898488;29;20014;-79
2022/07/15 12:55:02;;;;;;;;;;;;;;;;;;4900099;29;19966;-78
2022/07/15 12:57:29;;;;;;;;;;;;;;;;;;4905167;29;19933;-80
2022/07/15 12:59:56;;;;;;;;;;;;;;;;;;4906065;29;19959;-78
2022/07/15 13:02:24;;;;;;;;;;;;;;;;;;4903473;29;19924;-79
2022/07/15 13:04:51;;;;;;;;;;;;;;;;;;4905049;29;19991;-80
2022/07/15 13:07:18;;;;;;;;;;;;;;;;;;4903426;29;19963;-79
2022/07/15 13:09:45;;;;;;;;;;;;;;;;;;4904926;29;19935;-80
2022/07/15 13:12:13;;;;;;;;;;;;;;;;;;4904926;29;19934;-79
2022/07/15 13:14:40;;;;;;;;;;;;;;;;;;4904542;29;19927;-82
2022/07/15 13:17:07;;;;;;;;;;;;;;;;;;4906155;29;19934;-82
2022/07/15 13:19:35;;;;;;;;;;;;;;;;;;4904714;29;19923;-81
2022/07/15 13:22:02;;;;;;;;;;;;;;;;;;4909239;29;19938;-80
2022/07/15 13:24:29;;;;;;;;;;;;;;;;;;4912630;29;19961;-81
2022/07/15 13:26:57;;;;;;;;;;;;;;;;;;4910822;29;20038;-80
2022/07/15 13:29:24;;;;;;;;;;;;;;;;;;4906025;29;19955;-79
2022/07/15 13:31:51;;;;;;;;;;;;;;;;;;4906254;29;19931;-83
2022/07/15 13:34:19;;;;;;;;;;;;;;;;;;4902456;29;19931;-80
2022/07/15 13:36:46;;;;;;;;;;;;;;;;;;4899721;29;19983;-79
2022/07/15 13:39:13;;;;;;;;;;;;;;;;;;4903084;29;19924;-80
2022/07/15 13:41:41;;;;;;;;;;;;;;;;;;4904092;29;19931;-80
2022/07/15 13:44:08;;;;;;;;;;;;;;;;;;4903128;29;19960;-82
2022/07/15 13:46:35;;;;;;;;;;;;;;;;;;4900546;29;19924;-80
2022/07/15 13:49:03;;;;;;;;;;;;;;;;;;4900917;29;19931;-80
2022/07/15 13:51:30;;;;;;;;;;;;;;;;;;4902387;29;19930;-80
2022/07/15 13:53:57;;;;;;;;;;;;;;;;;;4897415;29;19927;-79
2022/07/15 13:56:24;;;;;;;;;;;;;;;;;;4900429;29;19930;-80
2022/07/15 13:58:52;;;;;;;;;;;;;;;;;;4901604;29;19966;-82
2022/07/15 14:01:20;;;;;;;;;;;;;;;;;;4901337;29;19931;-80
2022/07/15 14:03:48;;;;;;;;;;;;;;;;;;4902754;29;19951;-79
2022/07/15 14:06:15;;;;;;;;;;;;;;;;;;4900913;29;19927;-81
2022/07/15 14:08:42;;;;;;;;;;;;;;;;;;4901846;29;19979;-81
2022/07/15 14:11:10;;;;;;;;;;;;;;;;;;4899472;29;19935;-80
2022/07/15 14:13:37;;;;;;;;;;;;;;;;;;4900666;29;19923;-80
2022/07/15 14:16:04;;;;;;;;;;;;;;;;;;4886116;29;19923;-81
2022/07/15 14:18:46;;;;;;;;;;;;;;;;;;4901459;29;19927;-80
2022/07/15 14:21:14;;;;;;;;;;;;;;;;;;4900292;29;19979;-80
2022/07/15 14:23:41;;;;;;;;;;;;;;;;;;4897506;29;19927;-80
2022/07/15 14:26:08;;;;;;;;;;;;;;;;;;4899586;29;19931;-80
2022/07/15 14:28:36;;;;;;;;;;;;;;;;;;4902009;29;20011;-80
2022/07/15 14:31:05;;;;;;;;;;;;;;;;;;4903360;29;19927;-84
2022/07/15 14:33:32;;;;;;;;;;;;;;;;;;4901971;29;19969;-80
2022/07/15 14:35:59;;;;;;;;;;;;;;;;;;4902552;29;19927;-79
2022/07/15 14:38:27;;;;;;;;;;;;;;;;;;4901124;29;20445;-81
2022/07/15 14:40:55;;;;;;;;;;;;;;;;;;4905630;29;20385;-81
2022/07/15 14:43:22;;;;;;;;;;;;;;;;;;4902150;29;19924;-80
2022/07/15 14:48:47;;;;;;;;;;;;;;;;;;4846960;29;19925;-76
2022/07/15 14:51:15;;;;;;;;;;;;;;;;;;4837012;29;20066;-76
2022/07/15 14:53:42;;;;;;;;;;;;;;;;;;4837651;29;19936;-76
2022/07/15 14:56:09;;;;;;;;;;;;;;;;;;4850509;29;20389;-76
2022/07/15 14:58:37;;;;;;;;;;;;;;;;;;4834423;29;20012;-76
2022/07/15 15:01:04;;;;;;;;;;;;;;;;;;4837098;29;19932;-76
2022/07/15 15:03:31;;;;;;;;;;;;;;;;;;4835379;29;19929;-76
2022/07/15 15:05:59;;;;;;;;;;;;;;;;;;4837092;29;19931;-76
2022/07/15 15:08:26;;;;;;;;;;;;;;;;;;4834568;29;20003;-76
2022/07/15 15:10:53;;;;;;;;;;;;;;;;;;4837043;29;19934;-76
2022/07/15 15:13:20;;;;;;;;;;;;;;;;;;4836130;29;20018;-76
2022/07/15 15:15:48;;;;;;;;;;;;;;;;;;4837489;29;19977;-76
2022/07/15 15:18:16;;;;;;;;;;;;;;;;;;4836838;29;19928;-76
2022/07/15 15:20:43;;;;;;;;;;;;;;;;;;4851531;29;19968;-76
2022/07/15 15:23:10;;;;;;;;;;;;;;;;;;4837787;29;20035;-76
2022/07/15 15:28:24;;;;;;;;;;;;;;;;;;4836560;29;19971;-76
2022/07/15 15:30:51;;;;;;;;;;;;;;;;;;4835824;29;19924;-76
2022/07/15 15:33:18;;;;;;;;;;;;;;;;;;4828879;29;19928;-75
2022/07/15 15:35:45;;;;;;;;;;;;;;;;;;4830042;29;20027;-75
2022/07/15 15:38:12;;;;;;;;;;;;;;;;;;4835540;29;20312;-75
2022/07/15 15:40:40;;;;;;;;;;;;;;;;;;4837114;29;19924;-75
2022/07/15 15:43:07;;;;;;;;;;;;;;;;;;4837115;29;19932;-75
2022/07/15 15:45:34;;;;;;;;;;;;;;;;;;4835796;29;19933;-75
2022/07/15 15:48:02;;;;;;;;;;;;;;;;;;4835220;29;20374;-77
2022/07/15 15:50:29;;;;;;;;;;;;;;;;;;4837633;29;19935;-75
2022/07/15 15:52:56;;;;;;;;;;;;;;;;;;4837289;29;19932;-75
2022/07/15 15:55:24;;;;;;;;;;;;;;;;;;4837132;29;19935;-76
2022/07/15 15:57:51;;;;;;;;;;;;;;;;;;4835006;29;19966;-76
2022/07/15 16:00:39;;;;;;;;;;;;;;;;;;4839211;29;19924;-76
2022/07/15 16:03:06;;;;;;;;;;;;;;;;;;4839848;29;20369;-76
2022/07/15 16:05:33;;;;;;;;;;;;;;;;;;4838884;29;19928;-76
2022/07/15 16:08:01;;;;;;;;;;;;;;;;;;4840434;29;19924;-76
2022/07/15 16:10:29;;;;;;;;;;;;;;;;;;4838798;29;20389;-77
2022/07/15 16:12:56;;;;;;;;;;;;;;;;;;4839742;29;19928;-76
2022/07/15 16:15:23;;;;;;;;;;;;;;;;;;4839534;29;19924;-76
2022/07/15 16:17:50;;;;;;;;;;;;;;;;;;4840583;29;19932;-77
2022/07/15 16:20:18;;;;;;;;;;;;;;;;;;4843135;29;19924;-78
2022/07/15 16:22:55;;;;;;;;;;;;;;;;;;4841345;29;19928;-78
2022/07/15 16:25:23;;;;;;;;;;;;;;;;;;4839528;29;19928;-76
2022/07/15 16:27:51;;;;;;;;;;;;;;;;;;4840179;29;19929;-76
2022/07/15 16:30:23;;;;;;;;;;;;;;;;;;4840019;29;19928;-76
2022/07/15 16:32:56;;;;;;;;;;;;;;;;;;4853961;29;19932;-76
2022/07/15 16:35:24;;;;;;;;;;;;;;;;;;4853596;29;19958;-76
2022/07/15 16:37:51;;;;;;;;;;;;;;;;;;4850403;29;20027;-76
2022/07/15 16:40:19;;;;;;;;;;;;;;;;;;4833253;29;19935;-76
2022/07/15 16:42:46;;;;;;;;;;;;;;;;;;4833360;29;20027;-75
2022/07/15 16:45:13;;;;;;;;;;;;;;;;;;4850612;29;19976;-76
2022/07/15 16:47:41;;;;;;;;;;;;;;;;;;4834345;29;19982;-76
2022/07/15 16:50:08;;;;;;;;;;;;;;;;;;4833101;29;20610;-76
2022/07/15 16:52:36;;;;;;;;;;;;;;;;;;4827732;29;19990;-78
2022/07/15 16:55:03;;;;;;;;;;;;;;;;;;4834478;29;20026;-78
2022/07/15 16:57:30;;;;;;;;;;;;;;;;;;4847811;29;19960;-78
2022/07/15 16:59:57;;;;;;;;;;;;;;;;;;4836853;29;20019;-78
2022/07/15 17:02:25;;;;;;;;;;;;;;;;;;4837927;29;20293;-78
2022/07/15 17:04:52;;;;;;;;;;;;;;;;;;4837832;29;19928;-78
2022/07/15 17:07:19;;;;;;;;;;;;;;;;;;4836410;29;19931;-78
2022/07/15 17:09:47;;;;;;;;;;;;;;;;;;4837062;29;19977;-78
2022/07/15 17:12:14;;;;;;;;;;;;;;;;;;4836869;29;19982;-78
2022/07/15 17:14:49;;;;;;;;;;;;;;;;;;4837067;29;19932;-77
2022/07/15 17:17:16;;;;;;;;;;;;;;;;;;4836968;29;19971;-78
2022/07/15 17:19:43;;;;;;;;;;;;;;;;;;4837931;29;20035;-79
2022/07/15 17:22:10;;;;;;;;;;;;;;;;;;4838184;29;19932;-79
2022/07/15 17:24:38;;;;;;;;;;;;;;;;;;4852566;29;20026;-78
2022/07/15 17:27:05;;;;;;;;;;;;;;;;;;4839416;29;21308;-77
2022/07/15 17:29:33;;;;;;;;;;;;;;;;;;4850240;29;19928;-79